• Join FlightAware (Why Join?)
  • Login
  • US Flag 
04:05AM EDT


 

Airport Tracker/Info


-or-


 

Live Flight TrackerFlight Track Log ✈ AAL2460 ✈ 05-May-2013 ✈ KLAX - KDFW

Flight Track Log - Related Links

Times and Time Zones

All times are in EDT time to prevent confusion due to time zone crossing. See the AAL2460 flight status page for this flight to view local times or setup timezone preferences in your user account.

Time Position Orientation Groundspeed Altitude Reporting Facility
EDT Latitude Longitude Course Direction KTS MPH feet Rate Location/Type
09:11PM 33.9333 -118.3333 90° East 206 237 2,600  Level Southern California TRACON
09:12PM 33.9194 -118.2653 104° East 247 284 5,700 2,880 Climbing Los Angeles Center
09:13PM 33.7667 -117.9874 90° East  Level FlightAware Approximate
09:13PM 33.8936 -118.1747 109° East 278 320 8,800  Level Los Angeles Center
09:14PM 33.7654 -117.8284 107° East  Level FlightAware Approximate
09:14PM 33.8536 -118.0569 112° Southeast 319 367 11,800  Level Los Angeles Center
09:15PM 33.7406 -117.6726 97° East  Level FlightAware Approximate
09:15PM 33.8086 -117.9500 117° Southeast 355 409 15,100  Level Los Angeles Center
09:16PM 33.7333 -117.5140 90° East  Level FlightAware Approximate
09:16PM 33.7678 -117.8317 113° Southeast 378 435 17,900  Level Los Angeles Center
09:17PM 33.7558 -117.6931 96° East 420 483 19,400 1,800 Climbing Los Angeles Center
09:19PM 33.7444 -117.5417 95° East 450 518 21,700 2,220 Climbing Los Angeles Center
09:20PM 33.7317 -117.3856 96° East 470 541 24,000 2,040 Climbing Los Angeles Center
09:21PM 33.7181 -117.2269 96° East 477 549 26,000 1,980 Climbing Los Angeles Center
09:22PM 33.7022 -117.0319 96° East 490 564 28,100 1,980 Climbing Los Angeles Center
09:23PM 33.6889 -116.8664 95° East 497 572 30,100 1,500 Climbing Los Angeles Center
09:24PM 33.6767 -116.7200 96° East 500 575 31,200 1,440 Climbing Los Angeles Center
09:25PM 33.6622 -116.5517 96° East 504 580 33,100 1,800 Climbing Los Angeles Center
09:26PM 33.6397 -116.3514 98° East 503 579 35,000 1,800 Climbing Los Angeles Center
09:27PM 33.6178 -116.1839 99° East 505 581 36,900 1,560 Climbing Los Angeles Center
09:28PM 33.5975 -116.0222 99° East 494 568 38,200 1,020 Climbing Los Angeles Center
09:29PM 33.5764 -115.8608 99° East 489 563 39,100 780 Climbing Los Angeles Center
09:30PM 33.5561 -115.6989 99° East 490 564 39,900 780 Climbing Los Angeles Center
09:31PM 33.5336 -115.5358 99° East 492 566 40,800 480 Climbing Los Angeles Center
09:32PM 33.5119 -115.3714 99° East 500 575 40,900  Climbing Los Angeles Center
09:33PM 33.4897 -115.2039 99° East 509 586 40,900  Level Los Angeles Center
09:34PM 33.4594 -114.9978 100° East 522 601 40,900  Level Los Angeles Center
09:35PM 33.4381 -114.8258 98° East 527 606 40,900  Level Los Angeles Center
09:36PM 33.4142 -114.6550 99° East 526 605 40,900  Level Los Angeles Center
09:37PM 33.3928 -114.4875 99° East 513 590 40,900  Level Los Angeles Center
09:38PM 33.3678 -114.3203 100° East 511 588 40,900  Level Los Angeles Center
09:39PM 33.3450 -114.1547 99° East 508 585 40,900  Level Los Angeles Center
09:40PM 33.3211 -113.9872 100° East 513 590 40,900  Level Los Angeles Center
09:41PM 33.2928 -113.7886 100° East 509 586 40,900  Level Los Angeles Center
09:42PM 33.2689 -113.6211 100° East 512 589 40,900  Level Los Angeles Center
09:43PM 33.2439 -113.4550 100° East 510 587 40,900  Level Los Angeles Center
09:44PM 33.2203 -113.2919 100° East 518 596 40,900  Level Los Angeles Center
09:45PM 33.1897 -113.0919 100° East 509 586 40,900  Level Albuquerque Center
09:46PM 33.1642 -112.9239 100° East 512 589 40,900  Level Albuquerque Center
09:47PM 33.1383 -112.7564 100° East 512 589 40,900  Level Albuquerque Center
09:48PM 33.1117 -112.5900 101° East 510 587 40,900  Level Albuquerque Center
09:49PM 33.0864 -112.4242 100° East 508 585 40,900  Level Albuquerque Center
09:50PM 33.0572 -112.2422 101° East 511 588 41,000  Climbing Albuquerque Center
09:52PM 33.0314 -112.0761 100° East 513 590 41,000  Level Albuquerque Center
09:53PM 33.0050 -111.9111 101° East 511 588 41,000  Level Albuquerque Center
09:54PM 32.9778 -111.7447 101° East 515 593 41,000  Level Albuquerque Center
09:55PM 32.9514 -111.5800 101° East 511 588 41,000  Level Albuquerque Center
09:56PM 32.9236 -111.4156 101° East 511 588 41,000  Level Albuquerque Center
09:57PM 32.8958 -111.2514 101° East 510 587 41,000  Level Albuquerque Center
09:58PM 32.8683 -111.0847 101° East 514 592 41,000  Level Albuquerque Center
09:59PM 32.8347 -110.8856 101° East 514 592 41,000  Level Albuquerque Center
10:00PM 32.8050 -110.7203 102° East 514 592 41,000  Level Albuquerque Center
10:01PM 32.7797 -110.5703 101° East 517 595 41,000  Level Albuquerque Center
10:02PM 32.7517 -110.4050 101° East 517 595 41,000  Level Albuquerque Center
10:03PM 32.7161 -110.2047 102° East 520 598 41,000  Level Albuquerque Center
10:04PM 32.6858 -110.0381 102° East 522 601 41,000  Level Albuquerque Center
10:05PM 32.6561 -109.8733 102° East 519 597 41,000  Level Albuquerque Center
10:06PM 32.6261 -109.7083 102° East 519 597 41,000  Level Albuquerque Center
10:07PM 32.5942 -109.5422 103° East 522 601 41,000  Level Albuquerque Center
10:08PM 32.5647 -109.3800 102° East 514 592 41,000  Level Albuquerque Center
10:09PM 32.5283 -109.1858 102° East 512 589 41,000  Level Albuquerque Center
10:10PM 32.4981 -109.0244 102° East 511 588 41,000  Level Albuquerque Center
10:11PM 32.4681 -108.8622 102° East 511 588 41,000  Level Albuquerque Center
10:12PM 32.4375 -108.6997 103° East 514 592 41,000  Level Albuquerque Center
10:13PM 32.4075 -108.5383 102° East 511 588 41,000 -60 Level Albuquerque Center
10:14PM 32.3717 -108.3536 103° East 514 592 40,900 -60 Descending Albuquerque Center
10:15PM 32.3394 -108.1906 103° East 513 590 40,900  Level Albuquerque Center
10:16PM 32.3081 -108.0278 103° East 512 589 40,900  Level Albuquerque Center
10:17PM 32.2758 -107.8650 103° East 512 589 40,900  Level Albuquerque Center
10:18PM 32.2444 -107.7019 103° East 512 589 40,900  Level Albuquerque Center
10:19PM 32.2381 -107.5344 93° East 519 597 40,900  Level Albuquerque Center
10:20PM 32.2425 -107.3614 88° East 515 593 41,000  Climbing Albuquerque Center
10:21PM 32.2511 -107.1597 87° East 519 597 41,000  Level Albuquerque Center
10:22PM 32.2553 -106.9908 88° East 517 595 41,000 -60 Level Albuquerque Center
10:23PM 32.2589 -106.8364 88° East 512 589 40,900 -60 Descending Albuquerque Center
10:24PM 32.2633 -106.6697 88° East 512 589 40,900  Level Albuquerque Center
10:25PM 32.2667 -106.5022 89° East 513 590 40,900  Level Albuquerque Center
10:26PM 32.2700 -106.3339 89° East 515 593 40,900  Level Albuquerque Center
10:27PM 32.2725 -106.1519 89° East 512 589 40,900  Level Albuquerque Center
10:28PM 32.2756 -105.9842 89° East 511 588 40,900  Level Albuquerque Center
10:29PM 32.2783 -105.8175 89° East 508 585 40,900  Level Albuquerque Center
10:30PM 32.2811 -105.6489 89° East 512 589 40,900  Level Albuquerque Center
10:31PM 32.2839 -105.4800 89° East 514 592 40,900  Level Albuquerque Center
10:32PM 32.2867 -105.3094 89° East 517 595 40,900  Level Albuquerque Center
10:33PM 32.2881 -105.1386 89° East 518 596 40,900  Level Albuquerque Center
10:34PM 32.2908 -104.9356 89° East 517 595 40,900  Level Albuquerque Center
10:35PM 32.2919 -104.7661 90° East 516 594 40,900  Level Albuquerque Center
10:36PM 32.2936 -104.5947 89° East 520 598 40,900  Level Albuquerque Center
10:37PM 32.2947 -104.4247 90° East 519 597 40,900  Level Albuquerque Center
10:38PM 32.2953 -104.2550 90° East 516 594 40,900  Level Albuquerque Center
10:39PM 32.2956 -104.0853 90° East 516 594 40,900  Level Albuquerque Center
10:40PM 32.2967 -103.9064 90° East 513 590 41,000  Climbing Albuquerque Center
10:41PM 32.2964 -103.7383 90° East 513 590 41,000  Level Albuquerque Center
10:42PM 32.2975 -103.5714 90° East 512 589 41,000  Level Albuquerque Center
10:43PM 32.2975 -103.4028 90° East 514 592 41,000  Level Albuquerque Center
10:45PM 32.2961 -103.2350 91° East 512 589 41,000  Level Albuquerque Center
10:46PM 32.2964 -103.0681 90° East 511 588 41,000  Level Albuquerque Center
10:47PM 32.2942 -102.8994 91° East 515 593 41,000  Level Albuquerque Center
10:47PM 32.2925 -102.7361 91° East 517 595 41,000  Level Fort Worth Center
10:48PM 32.2892 -102.5664 91° East 517 595 41,000  Level Fort Worth Center
10:49PM 32.2858 -102.3917 91° East 517 595 41,000  Level Fort Worth Center
10:50PM 32.2861 -102.2222 90° East 517 595 41,000  Level Fort Worth Center
10:51PM 32.2819 -102.0525 92° East 517 595 41,000  Level Fort Worth Center
10:52PM 32.2817 -101.8878 90° East 517 595 41,000  Level Fort Worth Center
10:53PM 32.2794 -101.7133 91° East 517 595 41,000  Level Fort Worth Center
10:54PM 32.2767 -101.5461 91° East 517 595 41,000  Level Fort Worth Center
10:55PM 32.2739 -101.3764 91° East 517 595 41,000  Level Fort Worth Center
10:56PM 32.2728 -101.2094 90° East 517 595 41,000  Level Fort Worth Center
10:57PM 32.2675 -101.0372 92° East 517 595 41,000  Level Fort Worth Center
10:58PM 32.2639 -100.8675 91° East 517 595 41,000  Level Fort Worth Center
10:59PM 32.2581 -100.6978 92° East 517 595 41,000  Level Fort Worth Center
11:00PM 32.2542 -100.5258 91° East 517 595 41,000  Level Fort Worth Center
11:01PM 32.2497 -100.3561 92° East 517 595 41,000  Level Fort Worth Center
11:02PM 32.2433 -100.1839 92° East 517 595 41,000  Level Fort Worth Center
11:03PM 32.2406 -100.0144 91° East 517 595 41,000  Level Fort Worth Center
11:04PM 32.2333 -99.8572 93° East 522 601 41,000  Level Fort Worth Center
11:05PM 32.2303 -99.6900 91° East 522 601 41,000  Level Fort Worth Center
11:06PM 32.2228 -99.5203 93° East 517 595 41,000 -420 Level Fort Worth Center
11:07PM 32.2192 -99.3508 91° East 517 595 40,200 -1,800 Descending Fort Worth Center
11:08PM 32.2133 -99.1814 92° East 517 595 37,400 -3,000 Descending Fort Worth Center
11:09PM 32.2072 -99.0069 92° East 517 595 34,300 -2,820 Descending Fort Worth Center
11:10PM 32.1989 -98.8325 93° East 522 601 31,800 -3,180 Descending Fort Worth Center
11:11PM 32.1903 -98.6628 93° East 522 601 28,000 -3,420 Descending Fort Worth Center
11:12PM 32.1878 -98.4936 91° East 516 594 25,000 -2,880 Descending Fort Worth Center
11:13PM 32.1806 -98.3339 93° East 495 570 22,300 -2,820 Descending Fort Worth Center
11:14PM 32.1903 -98.1622 86° East 481 554 19,400 -3,000 Descending Fort Worth Center
11:15PM 32.2306 -98.0322 70° East 443 510 16,300 -2,880 Descending Fort Worth Center
11:16PM 32.2644 -97.9169 71° East 415 478 13,700 -2,400 Descending Fort Worth Center
11:17PM 32.3047 -97.7844 70° East 396 456 11,500 -1,320 Descending Fort Worth Center
11:18PM 32.3319 -97.6889 71° East 356 410 11,100 -300 Descending Fort Worth Center
11:19PM 32.3719 -97.5906 64° Northeast 315 362 11,000 -120 Descending Fort Worth Center
11:20PM 32.4033 -97.5094 65° Northeast 295 339 10,900 -840 Descending Fort Worth Center
11:21PM 32.4408 -97.4133 65° Northeast 295 339 9,400 -1,320 Descending Fort Worth Center
11:22PM 32.4722 -97.3394 63° Northeast 290 334 8,300 -1,200 Descending Fort Worth Center
11:23PM 32.5056 -97.2508 66° East 267 307 7,000 -1,200 Descending Fort Worth Center
11:24PM 32.5283 -97.1917 65° Northeast 239 275 6,000 -1,020 Descending Fort Worth Center
11:25PM 32.5575 -97.1200 64° Northeast 215 247 5,000 -540 Descending Fort Worth Center
11:26PM 32.5867 -97.0781 50° Northeast 192 221 5,000  Level Fort Worth Center
11:27PM 32.6303 -97.0483 30° Northeast 161 185 5,000 -120 Level Fort Worth Center
11:28PM 32.6667 -97.0333 19° North 170 196 4,800 -720 Descending Dallas / Fort Worth TRACON
11:29PM 32.7167 -97.0333 360° North 152 175 3,700 -960 Descending Dallas / Fort Worth TRACON
11:30PM 32.7500 -97.0167 23° Northeast 144 166 2,900 -840 Descending Dallas / Fort Worth TRACON
11:31PM 32.8000 -97.0167 360° North 146 168 2,200 -780 Descending Dallas / Fort Worth TRACON
11:32PM 32.8333 -97.0167 360° North 124 143 1,600 -660 Descending Dallas / Fort Worth TRACON
11:33PM 32.8667 -97.0167 360° North 121 139 1,000 -660 Descending Dallas / Fort Worth TRACON